To NAV CANADA Home Page Login to a new session Search on AWWS site Feedback and Comments Disclaimer Vers la page française équivalente Tips FAQ What's new on the site To the Forecasts and Observations / NOTAM section To "File a Flight Plan" website Publications and other links Update of the User's profile FIC Telephone Numbers My Weather Data Folder Route Weather Data Regional Weather Data Local Weather Data To the Forecasts and Observations / NOTAM section
Request Generated 05/28/2016 at 01:58:40 UTC . Weather information available at that time is displayed.

METAR/TAF

SARNIA (CHRIS HADFIELD)/ON    (show WxCam)

SPECI CYZR 280122Z AUTO 17003KT 6SM HZ SCT160 SCT180 BKN240 25/16
A2995 RMK SLP142 DENSITY ALT 1800FT=
SPECI CYZR 280111Z AUTO 17003KT 4SM HZ BKN160 BKN240 25/16 A2995 RMK
SLP142 DENSITY ALT 1800FT=
METAR CYZR 280100Z AUTO 19003KT 9SM BKN160 BKN190 26/16 A2996 RMK
SLP143 DENSITY ALT 1900FT=
METAR CYZR 280000Z AUTO 22007KT 9SM FEW210 27/15 A2995 RMK SLP139
DENSITY ALT 2000FT=
METAR CYZR 272300Z AUTO 21009KT 9SM FEW230 28/15 A2994 RMK SLP138
DENSITY ALT 2200FT=

TAF CYZR 271938Z 2720/2802 03008KT P6SM SCT050 BKN180 PROB30
2720/2723 2SM TSRA BR BKN030CB
RMK FCST BASED ON AUTO OBS. NXT FCST WILL BE ISSUED AT 281145Z=
Your time UTC time
Weather data provided by Environment Canada and NAV CANADA